Overview Statistics Trail Chart Weather Telemetry Raw packets
 

This is the latest recevied weather packets stored in our database for station/object 9A7DI-13. If no packets are shown the sender has not sent any weather packets the latest 10 day(s).

<< 18 19 20 21 22 23 24 >>
Time Temp. Humidity Pressure Rain* Wind** Luminosity Snow
1788385004 17.78° C 72% 1027.5 hPa - - - -
1788384404 18.33° C 68% 1027.6 hPa - - - -
1788383804 18.89° C 68% 1027.4 hPa - - - -
1788383204 18.33° C 72% 1027.5 hPa - - - -
1788382604 18.33° C 74% 1027.4 hPa - - - -
1788382004 17.78° C 76% 1027.2 hPa - - - -
1788381404 18.33° C 75% 1027.1 hPa - - - -
1788380804 18.89° C 72% 1027.1 hPa - - - -
1788380205 19.44° C 69% 1027.2 hPa - - - -
1788379605 19.44° C 69% 1027.1 hPa - - - -
1788379004 18.89° C 70% 1027.1 hPa - - - -
1788378404 20.56° C 66% 1027.2 hPa - - - -
1788377804 20.56° C 63% 1027.2 hPa - - - -
1788377204 20.56° C 61% 1027.1 hPa - - - -
1788376604 20.56° C 62% 1026.9 hPa - - - -
1788376004 20° C 65% 1026.8 hPa - - - -
1788375404 20.56° C 65% 1026.8 hPa - - - -
1788374804 21.11° C 64% 1026.7 hPa - - - -
1788374204 21.67° C 60% 1026.6 hPa - - - -
1788373604 21.11° C 65% 1026.6 hPa - - - -
1788373004 22.78° C 58% 1026.3 hPa - - - -
1788372404 23.33° C 57% 1026.2 hPa - - - -
1788371804 23.89° C 55% 1026.1 hPa - - - -
1788371204 25° C 47% 1025.8 hPa - - - -
1788370604 25.56° C 46% 1025.8 hPa - - - -

* Rain since midnight (hover to see other rain measurements)
** Current wind speed in m/s (hover to see current wind gust speed)